sensor_id;sensor_type;location;lat;lon;timestamp;P1;durP1;ratioP1;P2;durP2;ratioP2
39958;SDS011;25639;53.634;9.880;2023-04-03T00:01:15;9.15;;;2.35;;
39958;SDS011;25639;53.634;9.880;2023-04-03T00:03:41;5.72;;;1.80;;
39958;SDS011;25639;53.634;9.880;2023-04-03T00:06:06;9.88;;;2.22;;
39958;SDS011;25639;53.634;9.880;2023-04-03T00:08:33;10.00;;;2.28;;
39958;SDS011;25639;53.634;9.880;2023-04-03T00:10:59;10.25;;;2.78;;
39958;SDS011;25639;53.634;9.880;2023-04-03T00:13:27;10.43;;;2.22;;
39958;SDS011;25639;53.634;9.880;2023-04-03T00:15:53;10.10;;;2.58;;
39958;SDS011;25639;53.634;9.880;2023-04-03T00:18:18;5.57;;;2.00;;
39958;SDS011;25639;53.634;9.880;2023-04-03T00:20:44;7.50;;;2.08;;
39958;SDS011;25639;53.634;9.880;2023-04-03T00:23:09;12.02;;;2.13;;
39958;SDS011;25639;53.634;9.880;2023-04-03T00:25:35;9.52;;;2.67;;
39958;SDS011;25639;53.634;9.880;2023-04-03T00:28:01;8.45;;;2.67;;
39958;SDS011;25639;53.634;9.880;2023-04-03T00:30:27;5.28;;;2.45;;
39958;SDS011;25639;53.634;9.880;2023-04-03T00:32:52;5.30;;;2.10;;
39958;SDS011;25639;53.634;9.880;2023-04-03T00:35:19;7.40;;;2.28;;
39958;SDS011;25639;53.634;9.880;2023-04-03T00:37:45;6.80;;;1.98;;
39958;SDS011;25639;53.634;9.880;2023-04-03T00:40:11;7.85;;;2.30;;
39958;SDS011;25639;53.634;9.880;2023-04-03T00:42:39;10.98;;;2.47;;
39958;SDS011;25639;53.634;9.880;2023-04-03T00:47:31;9.82;;;2.28;;
39958;SDS011;25639;53.634;9.880;2023-04-03T00:49:57;5.30;;;1.98;;
39958;SDS011;25639;53.634;9.880;2023-04-03T00:52:23;6.75;;;2.00;;
39958;SDS011;25639;53.634;9.880;2023-04-03T00:54:54;7.43;;;2.08;;
39958;SDS011;25639;53.634;9.880;2023-04-03T00:57:22;5.70;;;1.83;;
39958;SDS011;25639;53.634;9.880;2023-04-03T00:59:51;6.18;;;2.60;;
39958;SDS011;25639;53.634;9.880;2023-04-03T01:02:21;8.18;;;2.13;;
39958;SDS011;25639;53.634;9.880;2023-04-03T01:04:47;6.65;;;2.50;;
39958;SDS011;25639;53.634;9.880;2023-04-03T01:07:22;4.53;;;2.00;;
39958;SDS011;25639;53.634;9.880;2023-04-03T01:09:52;6.65;;;2.03;;
39958;SDS011;25639;53.634;9.880;2023-04-03T01:12:26;6.47;;;1.95;;
39958;SDS011;25639;53.634;9.880;2023-04-03T01:14:57;12.23;;;2.10;;
39958;SDS011;25639;53.634;9.880;2023-04-03T01:17:42;10.80;;;1.95;;
39958;SDS011;25639;53.634;9.880;2023-04-03T01:20:15;7.07;;;1.70;;
39958;SDS011;25639;53.634;9.880;2023-04-03T01:25:39;9.70;;;2.13;;
39958;SDS011;25639;53.634;9.880;2023-04-03T01:28:11;8.77;;;2.30;;
39958;SDS011;25639;53.634;9.880;2023-04-03T01:30:46;5.47;;;1.80;;
39958;SDS011;25639;53.634;9.880;2023-04-03T01:33:13;5.90;;;1.75;;
39958;SDS011;25639;53.634;9.880;2023-04-03T01:35:39;9.82;;;2.40;;
39958;SDS011;25639;53.634;9.880;2023-04-03T01:38:05;6.30;;;2.35;;
39958;SDS011;25639;53.634;9.880;2023-04-03T01:40:31;5.85;;;2.05;;
39958;SDS011;25639;53.634;9.880;2023-04-03T01:42:56;8.10;;;2.33;;
39958;SDS011;25639;53.634;9.880;2023-04-03T01:45:43;8.13;;;2.10;;
39958;SDS011;25639;53.634;9.880;2023-04-03T01:48:15;7.63;;;2.90;;
39958;SDS011;25639;53.634;9.880;2023-04-03T01:50:43;6.40;;;1.92;;
39958;SDS011;25639;53.634;9.880;2023-04-03T01:53:31;4.18;;;1.98;;
39958;SDS011;25639;53.634;9.880;2023-04-03T01:56:20;10.60;;;1.80;;
39958;SDS011;25639;53.634;9.880;2023-04-03T01:59:30;6.13;;;1.65;;
39958;SDS011;25639;53.634;9.880;2023-04-03T02:03:14;5.30;;;1.90;;
39958;SDS011;25639;53.634;9.880;2023-04-03T02:10:09;5.50;;;2.20;;
39958;SDS011;25639;53.634;9.880;2023-04-03T02:13:19;7.50;;;2.17;;
39958;SDS011;25639;53.634;9.880;2023-04-03T02:15:44;9.38;;;2.30;;
39958;SDS011;25639;53.634;9.880;2023-04-03T02:18:10;5.28;;;1.98;;
39958;SDS011;25639;53.634;9.880;2023-04-03T02:20:36;5.07;;;1.80;;
39958;SDS011;25639;53.634;9.880;2023-04-03T02:23:06;6.20;;;2.08;;
39958;SDS011;25639;53.634;9.880;2023-04-03T02:25:37;8.50;;;2.47;;
39958;SDS011;25639;53.634;9.880;2023-04-03T02:28:03;7.28;;;2.03;;
39958;SDS011;25639;53.634;9.880;2023-04-03T02:30:28;5.50;;;2.10;;
39958;SDS011;25639;53.634;9.880;2023-04-03T02:32:57;4.15;;;1.70;;
39958;SDS011;25639;53.634;9.880;2023-04-03T02:35:22;7.82;;;2.17;;
39958;SDS011;25639;53.634;9.880;2023-04-03T02:37:48;9.35;;;2.63;;
39958;SDS011;25639;53.634;9.880;2023-04-03T02:40:13;5.55;;;2.38;;
39958;SDS011;25639;53.634;9.880;2023-04-03T02:42:39;9.10;;;2.25;;
39958;SDS011;25639;53.634;9.880;2023-04-03T02:45:04;6.05;;;2.28;;
39958;SDS011;25639;53.634;9.880;2023-04-03T02:47:30;11.18;;;2.53;;
39958;SDS011;25639;53.634;9.880;2023-04-03T02:49:55;4.07;;;2.20;;
39958;SDS011;25639;53.634;9.880;2023-04-03T02:52:21;9.70;;;2.22;;
39958;SDS011;25639;53.634;9.880;2023-04-03T02:54:47;6.22;;;2.30;;
39958;SDS011;25639;53.634;9.880;2023-04-03T02:57:12;6.38;;;2.10;;
39958;SDS011;25639;53.634;9.880;2023-04-03T02:59:37;4.75;;;2.05;;
39958;SDS011;25639;53.634;9.880;2023-04-03T03:02:05;4.78;;;1.98;;
39958;SDS011;25639;53.634;9.880;2023-04-03T03:04:32;9.07;;;2.13;;
39958;SDS011;25639;53.634;9.880;2023-04-03T03:06:57;5.47;;;2.60;;
39958;SDS011;25639;53.634;9.880;2023-04-03T03:09:23;9.32;;;3.13;;
39958;SDS011;25639;53.634;9.880;2023-04-03T03:11:48;8.50;;;2.30;;
39958;SDS011;25639;53.634;9.880;2023-04-03T03:14:13;8.10;;;2.90;;
39958;SDS011;25639;53.634;9.880;2023-04-03T03:16:39;7.35;;;2.58;;
39958;SDS011;25639;53.634;9.880;2023-04-03T03:19:04;6.28;;;2.38;;
39958;SDS011;25639;53.634;9.880;2023-04-03T03:21:31;5.55;;;2.13;;
39958;SDS011;25639;53.634;9.880;2023-04-03T03:23:56;5.53;;;2.17;;
39958;SDS011;25639;53.634;9.880;2023-04-03T03:26:22;5.82;;;2.40;;
39958;SDS011;25639;53.634;9.880;2023-04-03T03:28:47;5.45;;;2.40;;
39958;SDS011;25639;53.634;9.880;2023-04-03T03:31:12;8.43;;;2.40;;
39958;SDS011;25639;53.634;9.880;2023-04-03T03:33:38;10.55;;;2.45;;
39958;SDS011;25639;53.634;9.880;2023-04-03T03:36:03;5.80;;;2.33;;
39958;SDS011;25639;53.634;9.880;2023-04-03T03:38:29;7.80;;;2.22;;
39958;SDS011;25639;53.634;9.880;2023-04-03T03:40:54;11.73;;;3.00;;
39958;SDS011;25639;53.634;9.880;2023-04-03T03:43:20;9.52;;;2.50;;
39958;SDS011;25639;53.634;9.880;2023-04-03T03:45:46;7.43;;;2.47;;
39958;SDS011;25639;53.634;9.880;2023-04-03T03:48:16;9.93;;;2.78;;
39958;SDS011;25639;53.634;9.880;2023-04-03T03:50:41;7.22;;;2.13;;
39958;SDS011;25639;53.634;9.880;2023-04-03T03:53:06;5.63;;;2.22;;
39958;SDS011;25639;53.634;9.880;2023-04-03T03:55:32;6.13;;;2.33;;
39958;SDS011;25639;53.634;9.880;2023-04-03T03:57:57;5.55;;;2.55;;
39958;SDS011;25639;53.634;9.880;2023-04-03T04:00:22;9.18;;;2.63;;
39958;SDS011;25639;53.634;9.880;2023-04-03T04:02:47;5.80;;;2.03;;
39958;SDS011;25639;53.634;9.880;2023-04-03T04:05:13;5.25;;;2.10;;
39958;SDS011;25639;53.634;9.880;2023-04-03T04:07:38;7.32;;;2.10;;
39958;SDS011;25639;53.634;9.880;2023-04-03T04:10:04;4.97;;;2.22;;
39958;SDS011;25639;53.634;9.880;2023-04-03T04:12:29;10.85;;;2.45;;
39958;SDS011;25639;53.634;9.880;2023-04-03T04:14:55;4.97;;;2.05;;
39958;SDS011;25639;53.634;9.880;2023-04-03T04:17:21;5.90;;;2.00;;
39958;SDS011;25639;53.634;9.880;2023-04-03T04:19:46;8.05;;;2.40;;
39958;SDS011;25639;53.634;9.880;2023-04-03T04:22:12;5.80;;;2.60;;
39958;SDS011;25639;53.634;9.880;2023-04-03T04:24:37;5.07;;;2.20;;
39958;SDS011;25639;53.634;9.880;2023-04-03T04:27:02;8.00;;;2.75;;
39958;SDS011;25639;53.634;9.880;2023-04-03T04:29:28;4.95;;;2.03;;
39958;SDS011;25639;53.634;9.880;2023-04-03T04:31:53;9.80;;;2.47;;
39958;SDS011;25639;53.634;9.880;2023-04-03T04:34:18;8.77;;;2.08;;
39958;SDS011;25639;53.634;9.880;2023-04-03T04:36:44;4.07;;;1.80;;
39958;SDS011;25639;53.634;9.880;2023-04-03T04:39:09;7.05;;;2.30;;
39958;SDS011;25639;53.634;9.880;2023-04-03T04:41:34;7.97;;;2.85;;
39958;SDS011;25639;53.634;9.880;2023-04-03T04:44:00;8.32;;;2.40;;
39958;SDS011;25639;53.634;9.880;2023-04-03T04:46:25;8.13;;;2.25;;
39958;SDS011;25639;53.634;9.880;2023-04-03T04:48:51;5.00;;;2.20;;
39958;SDS011;25639;53.634;9.880;2023-04-03T04:51:17;8.60;;;2.60;;
39958;SDS011;25639;53.634;9.880;2023-04-03T04:53:42;7.82;;;2.50;;
39958;SDS011;25639;53.634;9.880;2023-04-03T04:56:08;6.53;;;2.10;;
39958;SDS011;25639;53.634;9.880;2023-04-03T04:58:35;7.80;;;2.20;;
39958;SDS011;25639;53.634;9.880;2023-04-03T05:01:00;4.18;;;2.08;;
39958;SDS011;25639;53.634;9.880;2023-04-03T05:03:27;6.70;;;2.20;;
39958;SDS011;25639;53.634;9.880;2023-04-03T05:05:52;9.25;;;2.30;;
39958;SDS011;25639;53.634;9.880;2023-04-03T05:08:18;6.32;;;2.53;;
39958;SDS011;25639;53.634;9.880;2023-04-03T05:10:44;8.65;;;2.40;;
39958;SDS011;25639;53.634;9.880;2023-04-03T05:13:10;9.55;;;2.10;;
39958;SDS011;25639;53.634;9.880;2023-04-03T05:15:35;5.32;;;2.05;;
39958;SDS011;25639;53.634;9.880;2023-04-03T05:18:00;7.28;;;2.53;;
39958;SDS011;25639;53.634;9.880;2023-04-03T05:20:26;8.05;;;2.28;;
39958;SDS011;25639;53.634;9.880;2023-04-03T05:22:51;5.43;;;2.42;;
39958;SDS011;25639;53.634;9.880;2023-04-03T05:25:16;9.07;;;2.33;;
39958;SDS011;25639;53.634;9.880;2023-04-03T05:27:42;5.75;;;2.45;;
39958;SDS011;25639;53.634;9.880;2023-04-03T05:30:07;7.55;;;2.90;;
39958;SDS011;25639;53.634;9.880;2023-04-03T05:32:33;8.20;;;2.72;;
39958;SDS011;25639;53.634;9.880;2023-04-03T05:34:58;7.30;;;3.05;;
39958;SDS011;25639;53.634;9.880;2023-04-03T05:37:23;7.45;;;2.30;;
39958;SDS011;25639;53.634;9.880;2023-04-03T05:39:49;6.45;;;2.47;;
39958;SDS011;25639;53.634;9.880;2023-04-03T05:42:14;11.10;;;3.10;;
39958;SDS011;25639;53.634;9.880;2023-04-03T05:44:40;10.60;;;2.70;;
39958;SDS011;25639;53.634;9.880;2023-04-03T05:47:06;6.75;;;2.65;;
39958;SDS011;25639;53.634;9.880;2023-04-03T05:49:31;6.88;;;2.75;;
39958;SDS011;25639;53.634;9.880;2023-04-03T05:51:57;8.25;;;2.60;;
39958;SDS011;25639;53.634;9.880;2023-04-03T05:54:26;11.77;;;3.45;;
39958;SDS011;25639;53.634;9.880;2023-04-03T05:56:54;16.20;;;3.90;;
39958;SDS011;25639;53.634;9.880;2023-04-03T05:59:21;12.48;;;3.97;;
39958;SDS011;25639;53.634;9.880;2023-04-03T06:05:20;11.18;;;4.32;;
39958;SDS011;25639;53.634;9.880;2023-04-03T06:07:45;13.27;;;4.43;;
39958;SDS011;25639;53.634;9.880;2023-04-03T06:10:12;12.05;;;3.80;;
39958;SDS011;25639;53.634;9.880;2023-04-03T06:12:37;11.23;;;3.88;;
39958;SDS011;25639;53.634;9.880;2023-04-03T06:15:03;13.25;;;3.65;;
39958;SDS011;25639;53.634;9.880;2023-04-03T06:17:28;9.50;;;3.40;;
39958;SDS011;25639;53.634;9.880;2023-04-03T06:19:54;8.52;;;3.25;;
39958;SDS011;25639;53.634;9.880;2023-04-03T06:22:20;10.57;;;3.38;;
39958;SDS011;25639;53.634;9.880;2023-04-03T06:24:46;13.95;;;3.85;;
39958;SDS011;25639;53.634;9.880;2023-04-03T06:27:11;9.93;;;3.22;;
39958;SDS011;25639;53.634;9.880;2023-04-03T06:29:37;9.60;;;3.33;;
39958;SDS011;25639;53.634;9.880;2023-04-03T06:32:02;10.48;;;3.47;;
39958;SDS011;25639;53.634;9.880;2023-04-03T06:34:28;9.25;;;2.90;;
39958;SDS011;25639;53.634;9.880;2023-04-03T06:36:53;14.40;;;3.63;;
39958;SDS011;25639;53.634;9.880;2023-04-03T06:39:19;5.43;;;2.72;;
39958;SDS011;25639;53.634;9.880;2023-04-03T06:41:47;4.03;;;2.17;;
39958;SDS011;25639;53.634;9.880;2023-04-03T06:44:12;14.20;;;3.33;;
39958;SDS011;25639;53.634;9.880;2023-04-03T06:46:40;10.23;;;2.63;;
39958;SDS011;25639;53.634;9.880;2023-04-03T06:49:06;6.40;;;3.00;;
39958;SDS011;25639;53.634;9.880;2023-04-03T06:51:35;10.75;;;3.03;;
39958;SDS011;25639;53.634;9.880;2023-04-03T06:54:00;9.07;;;2.50;;
39958;SDS011;25639;53.634;9.880;2023-04-03T06:56:27;7.00;;;2.70;;
39958;SDS011;25639;53.634;9.880;2023-04-03T06:58:53;10.90;;;2.75;;
39958;SDS011;25639;53.634;9.880;2023-04-03T07:01:21;8.90;;;2.50;;
39958;SDS011;25639;53.634;9.880;2023-04-03T07:03:47;10.77;;;2.70;;
39958;SDS011;25639;53.634;9.880;2023-04-03T07:06:14;10.63;;;2.30;;
39958;SDS011;25639;53.634;9.880;2023-04-03T07:08:41;6.70;;;2.30;;
39958;SDS011;25639;53.634;9.880;2023-04-03T07:11:08;6.57;;;2.40;;
39958;SDS011;25639;53.634;9.880;2023-04-03T07:13:34;8.70;;;2.40;;
39958;SDS011;25639;53.634;9.880;2023-04-03T07:16:00;8.15;;;2.55;;
39958;SDS011;25639;53.634;9.880;2023-04-03T07:18:25;8.07;;;2.22;;
39958;SDS011;25639;53.634;9.880;2023-04-03T07:20:51;7.60;;;2.20;;
39958;SDS011;25639;53.634;9.880;2023-04-03T07:23:16;9.68;;;2.63;;
39958;SDS011;25639;53.634;9.880;2023-04-03T07:25:43;15.02;;;3.70;;
39958;SDS011;25639;53.634;9.880;2023-04-03T07:28:09;11.32;;;2.90;;
39958;SDS011;25639;53.634;9.880;2023-04-03T07:30:34;6.43;;;1.80;;
39958;SDS011;25639;53.634;9.880;2023-04-03T07:33:00;9.65;;;2.53;;
39958;SDS011;25639;53.634;9.880;2023-04-03T07:35:26;5.35;;;1.52;;
39958;SDS011;25639;53.634;9.880;2023-04-03T07:37:51;4.28;;;1.50;;
39958;SDS011;25639;53.634;9.880;2023-04-03T07:40:16;8.23;;;2.72;;
39958;SDS011;25639;53.634;9.880;2023-04-03T07:42:42;5.22;;;1.67;;
39958;SDS011;25639;53.634;9.880;2023-04-03T07:45:07;6.47;;;2.00;;
39958;SDS011;25639;53.634;9.880;2023-04-03T07:47:33;6.72;;;1.80;;
39958;SDS011;25639;53.634;9.880;2023-04-03T07:49:58;8.02;;;1.65;;
39958;SDS011;25639;53.634;9.880;2023-04-03T07:52:24;8.65;;;1.63;;
39958;SDS011;25639;53.634;9.880;2023-04-03T07:54:50;2.95;;;0.95;;
39958;SDS011;25639;53.634;9.880;2023-04-03T07:57:15;3.55;;;0.98;;
39958;SDS011;25639;53.634;9.880;2023-04-03T07:59:41;3.53;;;0.88;;
39958;SDS011;25639;53.634;9.880;2023-04-03T08:02:10;6.40;;;0.80;;
39958;SDS011;25639;53.634;9.880;2023-04-03T08:04:35;9.32;;;1.20;;
39958;SDS011;25639;53.634;9.880;2023-04-03T08:07:01;4.03;;;1.00;;
39958;SDS011;25639;53.634;9.880;2023-04-03T08:09:26;4.28;;;1.05;;
39958;SDS011;25639;53.634;9.880;2023-04-03T08:11:51;3.50;;;1.33;;
39958;SDS011;25639;53.634;9.880;2023-04-03T08:14:18;3.15;;;1.02;;
39958;SDS011;25639;53.634;9.880;2023-04-03T08:16:44;5.85;;;1.02;;
39958;SDS011;25639;53.634;9.880;2023-04-03T08:19:10;5.65;;;1.00;;
39958;SDS011;25639;53.634;9.880;2023-04-03T08:21:37;4.43;;;1.20;;
39958;SDS011;25639;53.634;9.880;2023-04-03T08:24:06;4.85;;;1.60;;
39958;SDS011;25639;53.634;9.880;2023-04-03T08:26:31;5.47;;;1.65;;
39958;SDS011;25639;53.634;9.880;2023-04-03T08:28:57;5.85;;;1.70;;
39958;SDS011;25639;53.634;9.880;2023-04-03T08:31:22;5.10;;;1.20;;
39958;SDS011;25639;53.634;9.880;2023-04-03T08:33:48;4.95;;;1.42;;
39958;SDS011;25639;53.634;9.880;2023-04-03T08:36:22;7.90;;;1.17;;
39958;SDS011;25639;53.634;9.880;2023-04-03T08:38:49;6.65;;;1.30;;
39958;SDS011;25639;53.634;9.880;2023-04-03T08:41:38;5.45;;;0.80;;
39958;SDS011;25639;53.634;9.880;2023-04-03T08:46:59;4.57;;;1.60;;
39958;SDS011;25639;53.634;9.880;2023-04-03T08:49:31;7.65;;;1.63;;
39958;SDS011;25639;53.634;9.880;2023-04-03T08:52:01;2.97;;;1.05;;
39958;SDS011;25639;53.634;9.880;2023-04-03T08:54:32;4.97;;;1.08;;
39958;SDS011;25639;53.634;9.880;2023-04-03T08:57:00;4.95;;;1.00;;
39958;SDS011;25639;53.634;9.880;2023-04-03T08:59:29;7.90;;;1.80;;
39958;SDS011;25639;53.634;9.880;2023-04-03T09:01:58;4.07;;;1.00;;
39958;SDS011;25639;53.634;9.880;2023-04-03T09:04:27;6.70;;;1.10;;
39958;SDS011;25639;53.634;9.880;2023-04-03T09:06:58;4.68;;;0.75;;
39958;SDS011;25639;53.634;9.880;2023-04-03T09:09:43;4.53;;;1.10;;
39958;SDS011;25639;53.634;9.880;2023-04-03T09:12:26;3.95;;;1.20;;
39958;SDS011;25639;53.634;9.880;2023-04-03T09:20:29;3.28;;;1.42;;
39958;SDS011;25639;53.634;9.880;2023-04-03T09:23:09;2.40;;;0.90;;
39958;SDS011;25639;53.634;9.880;2023-04-03T09:25:41;6.28;;;1.20;;
39958;SDS011;25639;53.634;9.880;2023-04-03T09:28:08;2.42;;;1.00;;
39958;SDS011;25639;53.634;9.880;2023-04-03T09:30:34;3.75;;;0.88;;
39958;SDS011;25639;53.634;9.880;2023-04-03T09:33:00;2.53;;;0.88;;
39958;SDS011;25639;53.634;9.880;2023-04-03T09:35:30;3.60;;;0.88;;
39958;SDS011;25639;53.634;9.880;2023-04-03T09:40:37;3.67;;;0.90;;
39958;SDS011;25639;53.634;9.880;2023-04-03T09:45:52;6.07;;;1.35;;
39958;SDS011;25639;53.634;9.880;2023-04-03T09:53:28;2.63;;;0.90;;
39958;SDS011;25639;53.634;9.880;2023-04-03T09:55:53;1.77;;;0.93;;
39958;SDS011;25639;53.634;9.880;2023-04-03T09:58:23;3.72;;;1.17;;
39958;SDS011;25639;53.634;9.880;2023-04-03T10:00:57;4.78;;;1.20;;
39958;SDS011;25639;53.634;9.880;2023-04-03T10:03:27;3.85;;;0.98;;
39958;SDS011;25639;53.634;9.880;2023-04-03T10:05:57;2.97;;;0.82;;
39958;SDS011;25639;53.634;9.880;2023-04-03T10:08:25;5.85;;;1.15;;
39958;SDS011;25639;53.634;9.880;2023-04-03T10:13:42;6.03;;;1.30;;
39958;SDS011;25639;53.634;9.880;2023-04-03T10:16:16;2.70;;;1.00;;
39958;SDS011;25639;53.634;9.880;2023-04-03T10:18:46;4.18;;;0.85;;
39958;SDS011;25639;53.634;9.880;2023-04-03T10:21:20;4.72;;;1.40;;
39958;SDS011;25639;53.634;9.880;2023-04-03T10:24:14;4.35;;;1.25;;
39958;SDS011;25639;53.634;9.880;2023-04-03T10:26:54;2.42;;;1.00;;
39958;SDS011;25639;53.634;9.880;2023-04-03T10:29:37;2.65;;;0.70;;
39958;SDS011;25639;53.634;9.880;2023-04-03T10:34:59;4.28;;;1.00;;
39958;SDS011;25639;53.634;9.880;2023-04-03T10:37:35;3.50;;;0.75;;
39958;SDS011;25639;53.634;9.880;2023-04-03T10:40:35;5.10;;;1.00;;
39958;SDS011;25639;53.634;9.880;2023-04-03T10:43:14;4.13;;;0.85;;
39958;SDS011;25639;53.634;9.880;2023-04-03T10:51:59;6.45;;;1.30;;
39958;SDS011;25639;53.634;9.880;2023-04-03T10:54:38;8.02;;;1.95;;
39958;SDS011;25639;53.634;9.880;2023-04-03T10:57:06;3.53;;;0.95;;
39958;SDS011;25639;53.634;9.880;2023-04-03T11:02:23;3.80;;;0.80;;
39958;SDS011;25639;53.634;9.880;2023-04-03T11:04:53;4.28;;;1.77;;
39958;SDS011;25639;53.634;9.880;2023-04-03T11:07:26;7.72;;;1.35;;
39958;SDS011;25639;53.634;9.880;2023-04-03T11:09:57;4.22;;;0.90;;
39958;SDS011;25639;53.634;9.880;2023-04-03T11:15:06;2.20;;;0.90;;
39958;SDS011;25639;53.634;9.880;2023-04-03T11:17:39;4.45;;;1.48;;
39958;SDS011;25639;53.634;9.880;2023-04-03T11:20:16;3.28;;;1.10;;
39958;SDS011;25639;53.634;9.880;2023-04-03T11:22:50;6.38;;;1.08;;
39958;SDS011;25639;53.634;9.880;2023-04-03T11:25:22;4.97;;;0.90;;
39958;SDS011;25639;53.634;9.880;2023-04-03T11:30:20;6.20;;;1.20;;
39958;SDS011;25639;53.634;9.880;2023-04-03T11:33:51;6.30;;;1.17;;
39958;SDS011;25639;53.634;9.880;2023-04-03T11:36:10;7.15;;;1.70;;
39958;SDS011;25639;53.634;9.880;2023-04-03T11:38:43;4.00;;;1.23;;
39958;SDS011;25639;53.634;9.880;2023-04-03T11:41:10;3.88;;;1.13;;
39958;SDS011;25639;53.634;9.880;2023-04-03T11:43:41;4.47;;;1.38;;
39958;SDS011;25639;53.634;9.880;2023-04-03T11:46:21;3.92;;;1.13;;
39958;SDS011;25639;53.634;9.880;2023-04-03T11:48:48;4.82;;;1.38;;
39958;SDS011;25639;53.634;9.880;2023-04-03T11:53:45;4.95;;;1.20;;
39958;SDS011;25639;53.634;9.880;2023-04-03T12:04:09;3.08;;;0.90;;
39958;SDS011;25639;53.634;9.880;2023-04-03T12:09:04;7.43;;;1.23;;
39958;SDS011;25639;53.634;9.880;2023-04-03T12:11:48;2.13;;;0.80;;
39958;SDS011;25639;53.634;9.880;2023-04-03T12:14:16;7.15;;;0.98;;
39958;SDS011;25639;53.634;9.880;2023-04-03T12:16:46;2.70;;;0.80;;
39958;SDS011;25639;53.634;9.880;2023-04-03T12:26:36;5.47;;;0.90;;
39958;SDS011;25639;53.634;9.880;2023-04-03T12:29:10;6.22;;;1.00;;
39958;SDS011;25639;53.634;9.880;2023-04-03T12:31:46;4.82;;;0.98;;
39958;SDS011;25639;53.634;9.880;2023-04-03T12:34:26;2.38;;;0.70;;
39958;SDS011;25639;53.634;9.880;2023-04-03T12:36:59;6.30;;;1.05;;
39958;SDS011;25639;53.634;9.880;2023-04-03T12:47:28;4.68;;;1.42;;
39958;SDS011;25639;53.634;9.880;2023-04-03T12:49:58;4.40;;;0.93;;
39958;SDS011;25639;53.634;9.880;2023-04-03T12:55:14;3.38;;;1.10;;
39958;SDS011;25639;53.634;9.880;2023-04-03T12:57:41;6.03;;;1.00;;
39958;SDS011;25639;53.634;9.880;2023-04-03T13:02:53;4.80;;;1.17;;
39958;SDS011;25639;53.634;9.880;2023-04-03T13:05:19;2.58;;;0.70;;
39958;SDS011;25639;53.634;9.880;2023-04-03T13:07:52;3.95;;;0.82;;
39958;SDS011;25639;53.634;9.880;2023-04-03T13:10:22;2.45;;;0.75;;
39958;SDS011;25639;53.634;9.880;2023-04-03T13:12:49;3.28;;;1.05;;
39958;SDS011;25639;53.634;9.880;2023-04-03T13:17:48;2.92;;;1.00;;
39958;SDS011;25639;53.634;9.880;2023-04-03T13:22:57;2.75;;;1.02;;
39958;SDS011;25639;53.634;9.880;2023-04-03T13:25:31;2.45;;;0.80;;
39958;SDS011;25639;53.634;9.880;2023-04-03T13:27:59;4.20;;;1.48;;
39958;SDS011;25639;53.634;9.880;2023-04-03T13:32:59;4.13;;;0.80;;
39958;SDS011;25639;53.634;9.880;2023-04-03T13:35:27;4.00;;;1.17;;
39958;SDS011;25639;53.634;9.880;2023-04-03T13:38:27;2.47;;;0.98;;
39958;SDS011;25639;53.634;9.880;2023-04-03T13:40:57;4.50;;;1.00;;
39958;SDS011;25639;53.634;9.880;2023-04-03T13:43:30;2.35;;;1.00;;
39958;SDS011;25639;53.634;9.880;2023-04-03T13:48:36;5.38;;;1.27;;
39958;SDS011;25639;53.634;9.880;2023-04-03T13:53:48;4.85;;;1.20;;
39958;SDS011;25639;53.634;9.880;2023-04-03T13:58:55;4.72;;;1.50;;
39958;SDS011;25639;53.634;9.880;2023-04-03T14:01:43;6.63;;;1.42;;
39958;SDS011;25639;53.634;9.880;2023-04-03T14:04:12;2.42;;;1.00;;
39958;SDS011;25639;53.634;9.880;2023-04-03T14:06:40;4.22;;;1.10;;
39958;SDS011;25639;53.634;9.880;2023-04-03T14:09:06;4.57;;;1.30;;
39958;SDS011;25639;53.634;9.880;2023-04-03T14:11:31;4.00;;;1.27;;
39958;SDS011;25639;53.634;9.880;2023-04-03T14:13:57;2.70;;;1.10;;
39958;SDS011;25639;53.634;9.880;2023-04-03T14:16:28;3.85;;;1.13;;
39958;SDS011;25639;53.634;9.880;2023-04-03T14:18:56;1.65;;;1.00;;
39958;SDS011;25639;53.634;9.880;2023-04-03T14:21:22;7.13;;;1.02;;
39958;SDS011;25639;53.634;9.880;2023-04-03T14:23:47;3.58;;;1.20;;
39958;SDS011;25639;53.634;9.880;2023-04-03T14:26:14;6.20;;;1.33;;
39958;SDS011;25639;53.634;9.880;2023-04-03T14:28:42;6.35;;;1.42;;
39958;SDS011;25639;53.634;9.880;2023-04-03T14:31:09;5.10;;;1.10;;
39958;SDS011;25639;53.634;9.880;2023-04-03T14:33:36;4.30;;;1.10;;
39958;SDS011;25639;53.634;9.880;2023-04-03T14:36:02;2.47;;;1.10;;
39958;SDS011;25639;53.634;9.880;2023-04-03T14:38:36;3.03;;;1.20;;
39958;SDS011;25639;53.634;9.880;2023-04-03T14:41:02;10.15;;;1.20;;
39958;SDS011;25639;53.634;9.880;2023-04-03T14:43:27;3.65;;;1.10;;
39958;SDS011;25639;53.634;9.880;2023-04-03T14:45:53;4.70;;;1.27;;
39958;SDS011;25639;53.634;9.880;2023-04-03T14:48:20;9.43;;;1.27;;
39958;SDS011;25639;53.634;9.880;2023-04-03T14:50:50;5.07;;;1.20;;
39958;SDS011;25639;53.634;9.880;2023-04-03T14:53:17;2.70;;;1.08;;
39958;SDS011;25639;53.634;9.880;2023-04-03T14:55:44;7.03;;;1.33;;
39958;SDS011;25639;53.634;9.880;2023-04-03T14:58:17;6.07;;;1.27;;
39958;SDS011;25639;53.634;9.880;2023-04-03T15:00:44;4.75;;;1.23;;
39958;SDS011;25639;53.634;9.880;2023-04-03T15:03:14;3.53;;;1.00;;
39958;SDS011;25639;53.634;9.880;2023-04-03T15:05:43;3.50;;;1.20;;
39958;SDS011;25639;53.634;9.880;2023-04-03T15:08:18;7.85;;;1.50;;
39958;SDS011;25639;53.634;9.880;2023-04-03T15:10:46;10.57;;;1.40;;
39958;SDS011;25639;53.634;9.880;2023-04-03T15:13:12;3.13;;;1.40;;
39958;SDS011;25639;53.634;9.880;2023-04-03T15:15:38;3.97;;;1.25;;
39958;SDS011;25639;53.634;9.880;2023-04-03T15:18:03;5.55;;;1.30;;
39958;SDS011;25639;53.634;9.880;2023-04-03T15:20:30;4.47;;;1.30;;
39958;SDS011;25639;53.634;9.880;2023-04-03T15:22:58;3.10;;;1.27;;
39958;SDS011;25639;53.634;9.880;2023-04-03T15:25:27;4.07;;;1.30;;
39958;SDS011;25639;53.634;9.880;2023-04-03T15:27:56;5.80;;;1.40;;
39958;SDS011;25639;53.634;9.880;2023-04-03T15:30:22;6.90;;;1.30;;
39958;SDS011;25639;53.634;9.880;2023-04-03T15:32:48;5.90;;;1.55;;
39958;SDS011;25639;53.634;9.880;2023-04-03T15:35:13;3.13;;;1.25;;
39958;SDS011;25639;53.634;9.880;2023-04-03T15:37:39;4.53;;;1.38;;
39958;SDS011;25639;53.634;9.880;2023-04-03T15:40:05;7.25;;;1.55;;
39958;SDS011;25639;53.634;9.880;2023-04-03T15:42:31;6.55;;;1.85;;
39958;SDS011;25639;53.634;9.880;2023-04-03T15:44:57;3.65;;;1.17;;
39958;SDS011;25639;53.634;9.880;2023-04-03T15:47:24;4.30;;;1.30;;
39958;SDS011;25639;53.634;9.880;2023-04-03T15:49:50;5.22;;;1.25;;
39958;SDS011;25639;53.634;9.880;2023-04-03T15:52:15;6.68;;;2.05;;
39958;SDS011;25639;53.634;9.880;2023-04-03T15:54:41;5.28;;;1.10;;
39958;SDS011;25639;53.634;9.880;2023-04-03T15:57:06;5.85;;;1.30;;
39958;SDS011;25639;53.634;9.880;2023-04-03T15:59:31;6.72;;;1.38;;
39958;SDS011;25639;53.634;9.880;2023-04-03T16:01:57;6.53;;;1.30;;
39958;SDS011;25639;53.634;9.880;2023-04-03T16:04:24;3.78;;;1.50;;
39958;SDS011;25639;53.634;9.880;2023-04-03T16:06:49;2.35;;;1.15;;
39958;SDS011;25639;53.634;9.880;2023-04-03T16:09:15;4.63;;;1.73;;
39958;SDS011;25639;53.634;9.880;2023-04-03T16:11:40;3.08;;;1.05;;
39958;SDS011;25639;53.634;9.880;2023-04-03T16:14:06;4.00;;;1.20;;
39958;SDS011;25639;53.634;9.880;2023-04-03T16:16:32;10.60;;;1.40;;
39958;SDS011;25639;53.634;9.880;2023-04-03T16:18:58;6.32;;;1.20;;
39958;SDS011;25639;53.634;9.880;2023-04-03T16:21:23;9.82;;;1.40;;
39958;SDS011;25639;53.634;9.880;2023-04-03T16:23:49;4.05;;;1.40;;
39958;SDS011;25639;53.634;9.880;2023-04-03T16:26:14;6.60;;;1.40;;
39958;SDS011;25639;53.634;9.880;2023-04-03T16:28:40;4.57;;;1.40;;
39958;SDS011;25639;53.634;9.880;2023-04-03T16:31:06;4.47;;;1.30;;
39958;SDS011;25639;53.634;9.880;2023-04-03T16:33:32;6.38;;;1.50;;
39958;SDS011;25639;53.634;9.880;2023-04-03T16:35:57;5.15;;;1.38;;